ADDS METAR Data INFO
IDs: Format: Raw Decoded Include TAF

Data at: 1751 UTC 21 Oct 2017

PAPB 211704Z AUTO 33018G25KT 3SM -SN FEW020 OVC035 M01/M03 A2952 RMK AO2 P0000 T10061033 TSNO $
PAPB 211653Z AUTO 34022KT 2 1/2SM -SN FEW018 BKN022 OVC039 M01/M03 A2952 RMK AO2 PK WND 34030/1643 SNB21 SLP985 P0000 T10061033 TSNO $
PAPB 211648Z AUTO 33022G30KT 5SM -SN FEW020 BKN028 OVC037 00/M03 A2952 RMK AO2 PK WND 34030/1643 SNB21 P0000 TSNO $
PAPB 211553Z AUTO 32011KT 10SM FEW045 01/M06 A2951 RMK AO2 SNB1457E09 SLP980 P0000 T00061061 TSNO $
PAPB 211453Z AUTO 29008KT 10SM FEW050 SCT060 BKN100 02/M04 A2951 RMK AO2 SLP981 T00171044 56003 TSNO $
PAPB 211353Z AUTO 31012KT 10SM BKN095 01/M06 A2951 RMK AO2 SLP982 T00111056 TSNO $
PAPB 211253Z AUTO 33013KT 10SM FEW043 SCT120 01/M06 A2951 RMK AO2 SLP982 T00111061 TSNO $
PAPB 211153Z AUTO 33013KT 10SM CLR 01/M07 A2952 RMK AO2 SLP984 T00111072 10011 21006 51004 TSNO $
PAPB 211053Z AUTO 33014KT 10SM SCT049 01/M06 A2951 RMK AO2 SLP982 T00061061 TSNO $
PAPB 210953Z AUTO 34012KT 10SM SCT046 SCT090 01/M07 A2951 RMK AO2 SLP983 T00111067 TSNO $
PAPB 210853Z AUTO 34010G18KT 10SM CLR 01/M05 A2951 RMK AO2 PK WND 35029/0819 SLP980 T00061050 400280000 51012 TSNO $
PAPB 210753Z AUTO 36017G26KT 10SM FEW020 SCT027 BKN043 01/M03 A2950 RMK AO2 PK WND 35026/0750 SLP977 T00061033 TSNO $
PAPB 210653Z AUTO 33016KT 10SM CLR 01/M06 A2948 RMK AO2 SLP972 T00061061 TSNO $
PAPB 210553Z AUTO 33014KT 10SM FEW030 SCT039 SCT049 01/M04 A2947 RMK AO2 PK WND 33033/0517 SNB17E31 SLP968 P0000 60000 T00061044 10028 20000 51016 TSNO $
PAPB 210453Z AUTO 35018G22KT 10SM FEW036 SCT050 01/M04 A2946 RMK AO2 PK WND 34037/0415 SNB12E33 SLP963 P0000 T00061044 TSNO $
PAPB 210429Z AUTO 35016KT 3SM -SN BKN031 BKN048 00/M05 A2946 RMK AO2 PK WND 34037/0415 SNB12 P0000 T00001050 TSNO $
PAPB 210422Z AUTO 33018G37KT 2 1/2SM -SN BKN027 BKN049 00/M04 A2946 RMK AO2 PK WND 34037/0415 SNB12 P0000 T00001044 TSNO $
PAPB 210353Z AUTO 34016G21KT 10SM FEW045 FEW060 01/M06 A2944 RMK AO2 PK WND 32032/0337 SNB38E47 SLP958 P0000 T00061056 TSNO $
PAPB 210253Z AUTO 34022G29KT 10SM FEW048 SCT060 01/M06 A2942 RMK AO2 PK WND 32034/0230 SNE0156B29E42 SLP952 P0000 60000 T00111061 53009 TSNO $
PAPB 210153Z AUTO 33018G30KT 9SM -SN FEW031 BKN049 BKN060 02/M05 A2941 RMK AO2 PK WND 32031/0139 SNE01B45 SLP949 P0000 T00221050 TSNO $
PAPB 210053Z AUTO 34024G32KT 10SM -SN FEW021 SCT038 BKN049 02/M03 A2940 RMK AO2 PK WND 34037/0014 SNB2355E32B49 SLP944 P0000 T00171033 TSNO $
PAPB 210049Z AUTO 34026G32KT 10SM -SN FEW021 SCT038 BKN049 02/M03 A2940 RMK AO2 PK WND 34037/0014 SNB2355E32B49 P0000 TSNO $
PAPB 210030Z AUTO 34018G31KT 4SM -SN FEW018 BKN027 OVC050 01/M02 A2940 RMK AO2 PK WND 34037/0014 SNB2355 P0000 T00111022 TSNO $
PAPB 210027Z AUTO 36015G31KT 1 1/4SM -SN BKN020 BKN035 OVC048 01/M02 A2940 RMK AO2 PK WND 34037/0014 SNB2355 P0000 T00061022 TSNO $
PAPB 210020Z AUTO 35021G37KT 3/4SM -SN BR BKN016 BKN022 OVC045 00/M02 A2940 RMK AO2 PK WND 34037/0014 SNB2355 P0000 T00001022 TSNO $
PAPB 210017Z AUTO 35023G37KT 1 3/4SM -SN BR BKN020 BKN041 BKN050 00/M02 A2940 RMK AO2 PK WND 34037/0014 SNB2355 P0000 T00001022 TSNO $
PAPB 210012Z AUTO 34027G34KT 9SM -SN FEW018 BKN024 BKN043 01/M02 A2939 RMK AO2 PK WND 33034/0009 SNB2355 P0000 T00111017 TSNO $
PAPB 210008Z AUTO 33023G28KT 2 1/2SM -SN BR FEW016 BKN030 BKN042 01/M01 A2939 RMK AO2 PK WND 33029/2354 SNB2355 P0000 T00111011 TSNO $
PAPB 210000Z AUTO 34018G32KT 1SM -SN BR SCT015 SCT023 BKN028 01/M02 A2940 RMK AO2 PK WND 33029/2354 SNB2355 P0000 T00061017 TSNO $
PAPB 202357Z AUTO 33021G32KT 1 3/4SM -SN SCT019 SCT023 SCT060 01/M02 A2940 RMK AO2 PK WND 33029/2354 SNB55 P0000 T00111022 TSNO $
PAPB 202353Z AUTO 34024G32KT 7SM FEW019 SCT044 SCT060 02/M02 A2939 RMK AO2 PK WND 02038/2329 SNE04B20E32 SLP941 P0000 60000 T00221022 10028 20000 51007 TSNO $
PAPB 202300Z AUTO 36009G29KT 3SM -SN SCT024 BKN039 OVC070 01/M03 A2939 RMK AO2 PK WND 33029/2255 P0000 T00111028 TSNO $
PAPB 202258Z AUTO 01011G29KT 1 1/4SM -SN BKN022 BKN035 OVC070 01/M03 A2939 RMK AO2 PK WND 33029/2255 P0000 T00111028 TSNO $
PAPB 202253Z AUTO 35016G30KT 1/2SM SN FG BKN015 BKN035 BKN042 00/M02 A2939 RMK AO2 PK WND 32034/2215 SNB02E13B32 SLP940 P0000 T00001022 TSNO $
PAPB 202248Z AUTO 35024G31KT 1SM -SN SCT019 BKN039 01/M02 A2939 RMK AO2 PK WND 32034/2215 SNB02E13B32 P0000 TSNO $
PAPB 202153Z AUTO 36009G19KT 310V040 10SM FEW028 FEW043 BKN060 02/M03 A2938 RMK AO2 PK WND 36032/2123 SLP938 T00171033 TSNO $
PAPB 202053Z AUTO 02010G29KT 10SM FEW029 SCT034 BKN050 02/M04 A2937 RMK AO2 PK WND 34032/2019 SNE39 SLP933 P0000 60000 T00221044 51015 TSNO $
PAPB 201953Z AUTO 35009G31KT 300V020 9SM -SN FEW022 BKN048 OVC055 02/M03 A2936 RMK AO2 PK WND 34034/1934 SNE04B35 SLP929 P0000 T00171028 TSNO $
PAPB 201915Z AUTO 01013G23KT 10SM SCT030 BKN040 BKN047 02/M03 A2934 RMK AO2 SNE04 P0000 T00171028 TSNO $
PAPB 201907Z AUTO 02017G22KT 9SM FEW013 BKN027 OVC045 02/M02 A2934 RMK AO2 SNE04 P0000 T00171017 TSNO $
PAPB 201900Z AUTO 36014G19KT 330V030 2SM -SN BR FEW013 BKN023 OVC035 01/M01 A2934 RMK AO2 P0000 T00111011 TSNO $
PAPB 201853Z AUTO 36009G18KT 1SM -SN BR FEW010 BKN016 OVC023 01/M01 A2934 RMK AO2 PK WND 03026/1825 SNB28 SLP923 P0000 T00061006 TSNO $
PAPB 201846Z AUTO 35012G26KT 2SM -SN BR SCT013 OVC020 01/M01 A2934 RMK AO2 PK WND 03026/1825 VIS 1 1/2V3 SNB28 P0000 T00111011 TSNO $
PAPB 201841Z AUTO 01016G26KT 1 1/4SM -SN BR BKN013 BKN023 01/M01 A2934 RMK AO2 PK WND 03026/1825 VIS 1/2V3 SNB28 P0000 T00061011 TSNO $
PAPB 201835Z AUTO 02019KT 1SM -SN BR SCT015 BKN023 01/M01 A2933 RMK AO2 PK WND 03026/1825 SNB28 P0000 T00061011 TSNO $
PAPB 201831Z AUTO 02021G26KT 2 1/2SM -SN SCT020 BKN025 BKN040 01/M02 A2933 RMK AO2 PK WND 03026/1825 SNB28 P0000 T00111017 TSNO $
PAPB 201753Z AUTO 02017G24KT 10SM FEW024 SCT032 BKN039 02/M02 A2932 RMK AO2 SLP918 T00221017 10022 20017 53007 TSNO $
PAPB 201653Z AUTO 02018KT 10SM SCT036 02/M04 A2931 RMK AO2 SLP914 T00171039 TSNO $
PAPB 201553Z AUTO 03010KT 10SM SCT036 02/M03 A2931 RMK AO2 SLP913 T00171033 TSNO $
PAPB 201453Z AUTO 03018KT 10SM SCT030 BKN120 02/M03 A2930 RMK AO2 SLP911 T00221028 56004 TSNO
PAPB 201353Z AUTO 05016KT 10SM FEW030 SCT035 02/M03 A2931 RMK AO2 SLP912 T00221028 TSNO
PAPB 201253Z AUTO 04017KT 10SM SCT030 BKN038 OVC100 02/M02 A2931 RMK AO2 SLP912 T00221022 TSNO
PAPB 201153Z AUTO 06017KT 10SM SCT033 OVC100 02/M02 A2931 RMK AO2 SLP915 T00221022 10033 20022 58012 TSNO
PAPB 201053Z AUTO 07016KT 10SM FEW036 BKN110 02/M02 A2933 RMK AO2 SLP918 T00221017 TSNO
PAPB 200953Z AUTO 07014KT 10SM SCT033 BKN100 02/M02 A2934 RMK AO2 SLP924 T00221017 TSNO
PAPB 200853Z AUTO 07015KT 10SM OVC110 02/M02 A2935 RMK AO2 SLP926 T00221017 400561039 56015 TSNO
PAPB 200753Z AUTO 08015KT 10SM SCT037 OVC100 03/M01 A2936 RMK AO2 SLP930 T00281011 TSNO
PAPB 200653Z AUTO 07015KT 10SM SCT049 BKN120 03/M02 A2937 RMK AO2 SLP934 T00281017 TSNO
PAPB 200553Z AUTO 08012KT 10SM OVC046 03/M02 A2939 RMK AO2 SLP941 T00331017 10056 20028 56024 TSNO